メインページ
METAR-TAF:

METAR-TAF

空港 :

バマコ・セヌー国際空港

バマコ, マリ共和国

緯度: 12-32N, 経度: 007-57W, 海抜: 380m

現時点の気象観測

当レポートは34分前の14:30(UTC)に作成
変向風 3kt
気温 35°C
湿度 12%
気圧 1014 hPa
視程10km以上
1,500メートル以下は雲なし、積乱雲なし

METAR: GABS 181430Z VRB03KT CAVOK 35/01 Q1014 NOSIG

時間: 15:04 (15:04 UTC)

予報

当レポートは3時間34分前の11:30(UTC)に作成
予報は18日の 12時(UTC)から 19日の 18時(UTC)まで有効
東/北東の風 8kt
視程10km以上
1,500メートル以下は雲なし、積乱雲なし

TAF: GABS 181130Z 1812/1918 07008KT CAVOK

4,000以上の空港の気象観測と天気予報(METAR報とTAF報)

利用可能な観測所は地図上に黄色い丸と赤い丸で示す。

丸の上にカーソルを重ねると観測所名を参照できる。

次にクリックすると気象観測と天気予報を参照できる。

マップの切り替え:黒色「×」印の緑ボタンをクリックして拡大、「-」印の緑ボタンをクリックして縮小、緑色の三角印をクリックして隣りの地図に切り替え


METAR-TAF: